Time;durP1;ratioP1;P1;durP2;ratioP2;P2;SDS_P1;SDS_P2;PMS_P1;PMS_P2;Temp;Humidity;BMP_temperature;BMP_pressure;BME280_temperature;BME280_humidity;BME280_pressure;Samples;Min_cycle;Max_cycle;Signal;HPM_P1;HPM_P2
2021/01/24 00:02:00;;;;;;;0.10;0.10;;;1.50;99.90;;;;;;5030648;28;20159;-74
2021/01/24 00:04:26;;;;;;;0.10;0.10;;;1.50;99.90;;;;;;5029096;28;20220;-73
2021/01/24 00:06:52;;;;;;;0.10;0.10;;;1.70;99.90;;;;;;5029285;28;20619;-73
2021/01/24 00:09:18;;;;;;;0.00;0.00;;;1.70;99.90;;;;;;5030504;28;20169;-73
2021/01/24 00:11:44;;;;;;;0.10;0.10;;;1.70;99.90;;;;;;5023594;28;20182;-74
2021/01/24 00:14:10;;;;;;;0.10;0.10;;;1.70;99.90;;;;;;5018730;28;20261;-73
2021/01/24 00:16:36;;;;;;;0.10;0.10;;;1.70;99.90;;;;;;5009040;28;20163;-73
2021/01/24 00:19:02;;;;;;;0.10;0.10;;;1.70;99.90;;;;;;5009876;28;20219;-74
2021/01/24 00:21:28;;;;;;;0.10;0.10;;;1.70;99.90;;;;;;5009816;28;20205;-73
2021/01/24 00:23:53;;;;;;;0.10;0.10;;;1.70;99.90;;;;;;5009814;28;20206;-73
2021/01/24 00:26:19;;;;;;;0.10;0.10;;;1.70;99.90;;;;;;5010441;28;20162;-73
2021/01/24 00:28:45;;;;;;;1.08;1.08;;;1.80;99.90;;;;;;5010430;28;20186;-73
2021/01/24 00:31:11;;;;;;;0.10;0.10;;;1.70;99.90;;;;;;5010314;28;20170;-73
2021/01/24 00:33:37;;;;;;;0.10;0.10;;;1.80;99.90;;;;;;5024865;28;20228;-73
2021/01/24 00:36:03;;;;;;;0.10;0.10;;;1.80;99.90;;;;;;5024799;28;20186;-73
2021/01/24 00:38:29;;;;;;;0.10;0.10;;;1.80;99.90;;;;;;5025005;28;20197;-73
2021/01/24 00:40:55;;;;;;;0.10;0.10;;;1.80;99.90;;;;;;5009730;28;20195;-73
2021/01/24 00:43:21;;;;;;;0.10;0.10;;;1.80;99.90;;;;;;5024692;28;20317;-73
2021/01/24 00:45:48;;;;;;;0.10;0.10;;;1.80;99.90;;;;;;5009898;28;20227;-72
2021/01/24 00:48:15;;;;;;;0.70;0.70;;;1.80;99.90;;;;;;5009674;28;20151;-72
2021/01/24 00:50:42;;;;;;;0.10;0.10;;;1.80;99.90;;;;;;5009388;28;20167;-73
2021/01/24 00:53:07;;;;;;;0.10;0.10;;;1.90;99.90;;;;;;5009517;28;20182;-72
2021/01/24 00:55:33;;;;;;;0.10;0.10;;;1.80;99.90;;;;;;5024448;28;20217;-72
2021/01/24 00:58:00;;;;;;;0.10;0.10;;;1.90;99.90;;;;;;5025781;28;20194;-71
2021/01/24 01:00:26;;;;;;;0.00;0.00;;;1.90;99.90;;;;;;5028996;28;20296;-72
2021/01/24 01:02:51;;;;;;;0.10;0.10;;;2.10;99.90;;;;;;5027763;28;20241;-72
2021/01/24 01:05:17;;;;;;;0.10;0.10;;;2.10;99.90;;;;;;5028886;28;20209;-72
2021/01/24 01:07:43;;;;;;;0.10;0.10;;;2.10;99.90;;;;;;5028977;28;20158;-72
2021/01/24 01:10:10;;;;;;;0.10;0.10;;;2.00;99.90;;;;;;5028881;28;20181;-72
2021/01/24 01:12:35;;;;;;;0.00;0.00;;;2.00;99.90;;;;;;5044075;28;20216;-73
2021/01/24 01:15:02;;;;;;;0.10;0.10;;;2.00;99.90;;;;;;5028776;28;20221;-71
2021/01/24 01:17:28;;;;;;;0.25;0.25;;;2.10;99.90;;;;;;5028852;28;20166;-72
2021/01/24 01:19:54;;;;;;;0.10;0.10;;;2.20;99.90;;;;;;5043413;28;20193;-72
2021/01/24 01:22:23;;;;;;;0.00;0.00;;;2.10;99.90;;;;;;5029042;28;20169;-71
2021/01/24 01:24:49;;;;;;;0.10;0.10;;;2.20;99.90;;;;;;5029121;28;20641;-72
2021/01/24 01:27:15;;;;;;;0.10;0.10;;;2.30;99.90;;;;;;5029211;28;20163;-71
2021/01/24 01:29:40;;;;;;;0.10;0.10;;;2.40;99.90;;;;;;5028881;28;20174;-71
2021/01/24 01:32:06;;;;;;;0.10;0.10;;;2.30;99.90;;;;;;5027112;28;20198;-71
2021/01/24 01:34:32;;;;;;;0.20;0.20;;;2.30;99.90;;;;;;5028298;28;20204;-71
2021/01/24 01:36:58;;;;;;;0.10;0.10;;;2.30;99.90;;;;;;5010708;28;20206;-71
2021/01/24 01:39:25;;;;;;;0.10;0.10;;;2.30;99.90;;;;;;5036093;28;20178;-71
2021/01/24 01:41:51;;;;;;;0.40;0.40;;;2.20;99.90;;;;;;5028726;28;20205;-72
2021/01/24 01:44:17;;;;;;;0.10;0.10;;;2.10;99.90;;;;;;5028542;28;20263;-71
2021/01/24 01:46:43;;;;;;;0.10;0.10;;;2.00;99.90;;;;;;5028819;28;20539;-71
2021/01/24 01:49:09;;;;;;;0.30;0.30;;;2.10;99.90;;;;;;5028592;28;20229;-72
2021/01/24 01:51:35;;;;;;;1.30;1.20;;;2.20;99.90;;;;;;5028198;28;20229;-72
2021/01/24 01:54:01;;;;;;;0.10;0.10;;;2.20;99.90;;;;;;5028250;28;20258;-71
2021/01/24 01:56:27;;;;;;;0.10;0.10;;;2.30;99.90;;;;;;5028377;28;20166;-71
2021/01/24 01:58:53;;;;;;;0.22;0.22;;;2.40;99.90;;;;;;5028469;28;20238;-71
2021/01/24 02:02:16;;;;;;;0.20;0.20;;;2.30;99.90;;;;;;5028216;28;20197;-71
2021/01/24 02:04:51;;;;;;;0.10;0.10;;;2.30;99.90;;;;;;5026141;28;20193;-71
2021/01/24 02:07:23;;;;;;;0.10;0.10;;;2.40;99.90;;;;;;5009854;28;20179;-71
2021/01/24 02:09:58;;;;;;;0.10;0.10;;;2.40;99.90;;;;;;5009689;28;20205;-71
2021/01/24 02:12:35;;;;;;;0.00;0.00;;;2.40;99.90;;;;;;5026163;28;20157;-73
2021/01/24 02:15:05;;;;;;;0.10;0.10;;;2.30;99.90;;;;;;5025868;28;20253;-71
2021/01/24 02:17:36;;;;;;;0.20;0.20;;;2.30;99.90;;;;;;5011371;28;20210;-71
2021/01/24 02:20:21;;;;;;;0.30;0.30;;;2.40;99.90;;;;;;5016756;28;20293;-72
2021/01/24 02:22:49;;;;;;;0.20;0.20;;;2.40;99.90;;;;;;5009315;28;20189;-73
2021/01/24 02:25:46;;;;;;;0.20;0.20;;;2.50;99.90;;;;;;5026058;28;20280;-71
2021/01/24 02:28:42;;;;;;;0.10;0.10;;;2.40;99.90;;;;;;5026047;28;20182;-71
2021/01/24 02:31:09;;;;;;;0.10;0.10;;;2.40;99.90;;;;;;5009483;28;20563;-71
2021/01/24 02:33:37;;;;;;;0.28;0.28;;;2.40;99.90;;;;;;5025965;28;20619;-73
2021/01/24 02:36:07;;;;;;;0.32;0.32;;;2.40;99.90;;;;;;5027675;28;20205;-70
2021/01/24 02:38:36;;;;;;;1.75;0.65;;;2.50;99.90;;;;;;5026875;28;20177;-73
2021/01/24 02:41:03;;;;;;;0.10;0.10;;;2.50;99.90;;;;;;5028132;28;20212;-73
2021/01/24 02:43:30;;;;;;;0.10;0.10;;;2.40;99.90;;;;;;5043083;28;20245;-73
2021/01/24 02:45:56;;;;;;;0.17;0.17;;;2.50;99.90;;;;;;5029773;28;20193;-73
2021/01/24 02:48:23;;;;;;;2.92;1.38;;;2.40;99.90;;;;;;5032171;28;20181;-73
2021/01/24 02:50:49;;;;;;;0.10;0.10;;;2.30;99.90;;;;;;5031936;28;20212;-71
2021/01/24 02:53:17;;;;;;;0.10;0.10;;;2.10;99.90;;;;;;5047074;28;20221;-73
2021/01/24 02:55:43;;;;;;;3.25;1.00;;;2.00;99.90;;;;;;5030616;28;20329;-71
2021/01/24 02:58:10;;;;;;;0.10;0.10;;;2.20;99.90;;;;;;5032005;28;20154;-71
2021/01/24 03:00:36;;;;;;;0.10;0.10;;;2.20;99.90;;;;;;5031913;28;20177;-73
2021/01/24 03:03:02;;;;;;;0.10;0.10;;;2.20;99.90;;;;;;5031765;28;20176;-70
2021/01/24 03:05:28;;;;;;;0.17;0.17;;;2.20;99.90;;;;;;5031934;28;20162;-73
2021/01/24 03:07:57;;;;;;;0.10;0.10;;;2.30;99.90;;;;;;5047022;28;20166;-71
2021/01/24 03:10:24;;;;;;;0.10;0.10;;;2.30;99.90;;;;;;5031861;28;20169;-73
2021/01/24 03:13:10;;;;;;;0.10;0.10;;;2.20;99.90;;;;;;5031599;28;20158;-73
2021/01/24 03:15:36;;;;;;;0.13;0.13;;;2.20;99.90;;;;;;5031771;28;20236;-73
2021/01/24 03:18:05;;;;;;;0.10;0.10;;;2.30;99.90;;;;;;5031641;28;20158;-72
2021/01/24 03:20:35;;;;;;;0.10;0.10;;;2.40;99.90;;;;;;5031592;28;20272;-73
2021/01/24 03:23:03;;;;;;;0.10;0.10;;;2.30;99.90;;;;;;5046452;28;20234;-73
2021/01/24 03:25:31;;;;;;;0.10;0.10;;;2.40;99.90;;;;;;5031403;28;20166;-73
2021/01/24 03:27:58;;;;;;;0.10;0.10;;;2.40;99.90;;;;;;5031509;28;20171;-72
2021/01/24 03:30:25;;;;;;;0.10;0.10;;;2.40;99.90;;;;;;5031275;28;20173;-72
2021/01/24 03:32:51;;;;;;;0.20;0.20;;;2.40;99.90;;;;;;5029937;28;20170;-73
2021/01/24 03:35:17;;;;;;;0.20;0.20;;;2.40;99.90;;;;;;5031195;28;20627;-72
2021/01/24 03:37:43;;;;;;;0.10;0.10;;;2.40;99.90;;;;;;5030549;28;20166;-72
2021/01/24 03:40:09;;;;;;;0.10;0.10;;;2.40;99.90;;;;;;5030017;28;20197;-72
2021/01/24 03:42:35;;;;;;;0.17;0.17;;;2.30;99.90;;;;;;5029382;28;20225;-73
2021/01/24 03:45:00;;;;;;;0.10;0.10;;;2.30;99.90;;;;;;5030961;28;20194;-72
2021/01/24 03:47:26;;;;;;;0.30;0.30;;;2.30;99.90;;;;;;5046129;28;20181;-72
2021/01/24 03:49:52;;;;;;;0.10;0.10;;;2.30;99.90;;;;;;5030945;28;20220;-72
2021/01/24 03:52:18;;;;;;;0.10;0.10;;;2.30;99.90;;;;;;5030886;28;20261;-73
2021/01/24 03:54:44;;;;;;;0.10;0.10;;;2.30;99.90;;;;;;5029404;28;20190;-72
2021/01/24 03:57:10;;;;;;;2.40;0.88;;;2.30;99.90;;;;;;5030602;28;20154;-73
2021/01/24 03:59:36;;;;;;;0.45;0.45;;;2.30;99.90;;;;;;5030808;28;20179;-72
2021/01/24 04:02:01;;;;;;;0.13;0.13;;;2.30;99.90;;;;;;5010755;28;20163;-72
2021/01/24 04:04:27;;;;;;;0.20;0.20;;;2.20;99.90;;;;;;5010754;28;20263;-72
2021/01/24 04:06:53;;;;;;;0.20;0.20;;;2.30;99.90;;;;;;5026004;28;20177;-72
2021/01/24 04:09:19;;;;;;;0.43;0.43;;;2.30;99.90;;;;;;5011044;28;20159;-72
2021/01/24 04:11:45;;;;;;;0.17;0.17;;;2.30;99.90;;;;;;5010949;28;20177;-71
2021/01/24 04:14:11;;;;;;;0.15;0.15;;;2.20;99.90;;;;;;5025565;28;20202;-73
2021/01/24 04:16:37;;;;;;;0.10;0.10;;;2.30;99.90;;;;;;5025887;28;20171;-73
2021/01/24 04:19:03;;;;;;;0.17;0.17;;;2.30;99.90;;;;;;5025772;28;20194;-72
2021/01/24 04:21:29;;;;;;;0.35;0.35;;;2.30;99.90;;;;;;5010649;28;20281;-72
2021/01/24 04:23:55;;;;;;;0.10;0.10;;;2.30;99.90;;;;;;5010645;28;20194;-72
2021/01/24 04:26:21;;;;;;;0.68;0.68;;;2.20;99.90;;;;;;5025595;28;20167;-71
2021/01/24 04:28:47;;;;;;;0.10;0.10;;;2.30;99.90;;;;;;5010563;28;20175;-72
2021/01/24 04:31:12;;;;;;;0.75;0.75;;;2.40;99.90;;;;;;5025573;28;20585;-72
2021/01/24 04:33:38;;;;;;;0.10;0.10;;;2.40;99.90;;;;;;5010525;28;20194;-72
2021/01/24 04:36:06;;;;;;;0.57;0.57;;;2.40;99.90;;;;;;5010446;28;20178;-72
2021/01/24 04:38:32;;;;;;;0.10;0.10;;;2.30;99.90;;;;;;5010524;28;20201;-72
2021/01/24 04:40:57;;;;;;;0.10;0.10;;;2.30;99.90;;;;;;5010094;28;20504;-72
2021/01/24 04:43:25;;;;;;;0.10;0.10;;;2.30;99.90;;;;;;5009957;28;20227;-71
2021/01/24 04:45:55;;;;;;;0.10;0.10;;;2.30;99.90;;;;;;5010346;28;20190;-71
2021/01/24 04:48:25;;;;;;;0.13;0.13;;;2.20;99.90;;;;;;5010278;28;20159;-72
2021/01/24 04:50:52;;;;;;;0.68;0.68;;;2.30;99.90;;;;;;5010431;28;20171;-72
2021/01/24 04:53:19;;;;;;;0.10;0.10;;;2.30;99.90;;;;;;5010179;28;20191;-72
2021/01/24 04:55:45;;;;;;;0.20;0.20;;;2.20;99.90;;;;;;5010146;28;20193;-72
2021/01/24 04:58:11;;;;;;;0.98;0.90;;;2.30;99.90;;;;;;5025471;28;20167;-72
2021/01/24 05:00:37;;;;;;;0.20;0.20;;;2.30;99.90;;;;;;5010088;28;20195;-73
2021/01/24 05:03:04;;;;;;;0.65;0.65;;;2.20;99.90;;;;;;5025260;28;20167;-73
2021/01/24 05:05:29;;;;;;;0.52;0.52;;;2.20;99.90;;;;;;5010153;28;20159;-72
2021/01/24 05:07:57;;;;;;;0.30;0.30;;;2.20;99.90;;;;;;5009437;28;20190;-73
2021/01/24 05:10:25;;;;;;;0.10;0.10;;;2.00;99.90;;;;;;5009945;28;20524;-72
2021/01/24 05:12:52;;;;;;;0.10;0.10;;;2.10;99.90;;;;;;5010031;28;20166;-72
2021/01/24 05:15:17;;;;;;;0.10;0.10;;;2.20;99.90;;;;;;5009968;28;20608;-72
2021/01/24 05:18:09;;;;;;;0.10;0.10;;;2.10;99.90;;;;;;5009859;28;20173;-72
2021/01/24 05:20:35;;;;;;;0.10;0.10;;;2.10;99.90;;;;;;5009487;28;20244;-72
2021/01/24 05:23:04;;;;;;;1.30;1.30;;;2.00;99.90;;;;;;5009728;28;20182;-72
2021/01/24 05:25:32;;;;;;;0.52;0.52;;;1.90;99.90;;;;;;5010031;28;20165;-72
2021/01/24 05:28:16;;;;;;;0.57;0.57;;;1.90;99.90;;;;;;5014052;28;20647;-72
2021/01/24 05:30:41;;;;;;;0.47;0.47;;;2.00;99.90;;;;;;5028631;28;20177;-72
2021/01/24 05:33:07;;;;;;;0.10;0.10;;;2.10;99.90;;;;;;5028943;28;20176;-73
2021/01/24 05:35:49;;;;;;;0.20;0.20;;;2.20;99.90;;;;;;5044115;28;20173;-72
2021/01/24 05:38:30;;;;;;;0.00;0.00;;;2.10;99.90;;;;;;5028969;28;20165;-72
2021/01/24 05:41:00;;;;;;;0.13;0.13;;;2.10;99.90;;;;;;5043863;28;20194;-73
2021/01/24 05:43:32;;;;;;;0.63;0.55;;;2.20;99.90;;;;;;5028786;28;20264;-73
2021/01/24 05:45:59;;;;;;;0.40;0.40;;;2.30;99.90;;;;;;5027535;28;20175;-72
2021/01/24 05:48:25;;;;;;;0.10;0.10;;;2.40;99.90;;;;;;5028960;28;20169;-72
2021/01/24 05:50:52;;;;;;;0.35;0.35;;;2.30;99.90;;;;;;5002357;28;20210;-72
2021/01/24 05:53:18;;;;;;;1.40;0.63;;;2.30;99.90;;;;;;5023907;28;20198;-72
2021/01/24 05:55:44;;;;;;;0.10;0.10;;;2.30;99.90;;;;;;5009138;28;20162;-71
2021/01/24 05:58:21;;;;;;;0.10;0.10;;;2.30;99.90;;;;;;5008665;28;20171;-73
2021/01/24 06:00:51;;;;;;;3.83;1.90;;;2.30;99.90;;;;;;5008796;28;20197;-73
2021/01/24 06:03:19;;;;;;;0.00;0.00;;;2.20;99.90;;;;;;5024112;28;20198;-72
2021/01/24 06:05:45;;;;;;;1.52;1.45;;;2.10;99.90;;;;;;5023983;28;20166;-73
2021/01/24 06:08:14;;;;;;;3.65;1.15;;;2.00;99.90;;;;;;5008769;28;20185;-72
2021/01/24 06:10:41;;;;;;;0.20;0.20;;;1.90;99.90;;;;;;5008925;28;20228;-72
2021/01/24 06:13:20;;;;;;;0.10;0.10;;;1.80;99.90;;;;;;5023754;28;20198;-72
2021/01/24 06:15:46;;;;;;;0.40;0.40;;;1.70;99.90;;;;;;5008854;28;20226;-72
2021/01/24 06:18:19;;;;;;;0.32;0.32;;;1.80;99.90;;;;;;5023800;28;20170;-72
2021/01/24 06:20:57;;;;;;;0.10;0.10;;;1.80;99.90;;;;;;5008497;28;20335;-72
2021/01/24 06:23:49;;;;;;;0.65;0.65;;;1.80;99.90;;;;;;5023665;28;20620;-72
2021/01/24 06:26:17;;;;;;;0.45;0.45;;;1.90;99.90;;;;;;5008094;28;20218;-71
2021/01/24 06:28:45;;;;;;;0.10;0.10;;;1.80;99.90;;;;;;5023625;28;20178;-71
2021/01/24 06:31:19;;;;;;;0.10;0.10;;;1.80;99.90;;;;;;5008632;28;20179;-72
2021/01/24 06:33:46;;;;;;;0.10;0.10;;;1.80;99.90;;;;;;5008354;28;20285;-71
2021/01/24 06:36:13;;;;;;;0.20;0.20;;;1.90;99.90;;;;;;5008464;28;20261;-71
2021/01/24 06:38:41;;;;;;;0.10;0.10;;;1.90;99.90;;;;;;5008482;28;20163;-72
2021/01/24 06:41:10;;;;;;;1.55;1.27;;;1.90;99.90;;;;;;5008211;28;20632;-73
2021/01/24 06:43:48;;;;;;;0.10;0.10;;;1.90;99.90;;;;;;5008226;28;20296;-73
2021/01/24 06:46:32;;;;;;;0.10;0.10;;;2.00;99.90;;;;;;5008509;28;20155;-73
2021/01/24 06:48:58;;;;;;;0.38;0.38;;;1.90;99.90;;;;;;5023376;28;20159;-73
2021/01/24 06:51:43;;;;;;;0.65;0.65;;;1.90;99.90;;;;;;5007119;28;20201;-73
2021/01/24 06:54:28;;;;;;;1.20;1.13;;;1.80;99.90;;;;;;5023536;28;20194;-72
2021/01/24 06:57:06;;;;;;;0.88;0.88;;;1.90;99.90;;;;;;5009000;28;20650;-72
2021/01/24 06:59:32;;;;;;;0.17;0.17;;;1.80;99.90;;;;;;5008506;28;20535;-70
2021/01/24 07:02:38;;;;;;;0.50;0.50;;;1.80;99.90;;;;;;5008020;28;20182;-71
2021/01/24 07:05:11;;;;;;;1.40;1.30;;;1.90;99.90;;;;;;5023237;28;20276;-71
2021/01/24 07:07:39;;;;;;;0.50;0.50;;;1.90;99.90;;;;;;5008488;28;20186;-73
2021/01/24 07:10:08;;;;;;;0.52;0.52;;;2.10;99.90;;;;;;5008418;28;20246;-72
2021/01/24 07:12:39;;;;;;;0.10;0.10;;;2.00;99.90;;;;;;5023278;28;20246;-72
2021/01/24 07:15:11;;;;;;;0.75;0.75;;;1.90;99.90;;;;;;5008258;28;20199;-72
2021/01/24 07:17:38;;;;;;;2.13;1.95;;;1.90;99.90;;;;;;5008407;28;20558;-72
2021/01/24 07:20:06;;;;;;;1.17;1.17;;;1.80;99.90;;;;;;5023259;28;20218;-72
2021/01/24 07:22:33;;;;;;;0.10;0.10;;;1.90;99.90;;;;;;5008311;28;20175;-72
2021/01/24 07:24:59;;;;;;;1.20;1.05;;;1.90;99.90;;;;;;5023165;28;20194;-72
2021/01/24 07:27:29;;;;;;;0.22;0.22;;;1.90;99.90;;;;;;5006980;28;20167;-72
2021/01/24 07:29:56;;;;;;;0.47;0.47;;;2.00;99.90;;;;;;5008166;28;20190;-73
2021/01/24 07:32:25;;;;;;;0.20;0.20;;;2.10;99.90;;;;;;5010168;28;20166;-72
2021/01/24 07:34:53;;;;;;;0.17;0.17;;;2.30;99.90;;;;;;5011601;28;20194;-72
2021/01/24 07:37:19;;;;;;;1.23;1.23;;;2.40;99.90;;;;;;5011342;28;20179;-72
2021/01/24 07:39:48;;;;;;;0.98;0.90;;;2.60;99.90;;;;;;5011599;28;20167;-72
2021/01/24 07:42:15;;;;;;;1.55;1.38;;;2.50;99.90;;;;;;5011371;28;20206;-72
2021/01/24 07:44:43;;;;;;;0.43;0.43;;;2.60;99.90;;;;;;5011529;28;20195;-72
2021/01/24 07:47:11;;;;;;;0.10;0.10;;;2.50;99.90;;;;;;5026443;28;20171;-72
2021/01/24 07:49:38;;;;;;;0.10;0.10;;;2.60;99.90;;;;;;5026779;28;20179;-72
2021/01/24 07:52:05;;;;;;;0.40;0.40;;;2.70;99.90;;;;;;5011397;28;20263;-72
2021/01/24 07:54:36;;;;;;;0.17;0.17;;;2.90;99.90;;;;;;5026371;28;20198;-72
2021/01/24 07:57:06;;;;;;;0.10;0.10;;;3.00;99.90;;;;;;5011373;28;20182;-72
2021/01/24 07:59:33;;;;;;;0.10;0.10;;;3.10;99.90;;;;;;5011159;28;20159;-73
2021/01/24 08:02:01;;;;;;;1.30;1.30;;;3.40;99.90;;;;;;5026216;28;20286;-73
2021/01/24 08:04:27;;;;;;;0.43;0.43;;;3.70;99.90;;;;;;5026098;28;20233;-72
2021/01/24 08:06:53;;;;;;;0.47;0.47;;;3.90;99.90;;;;;;5026041;28;20170;-72
2021/01/24 08:09:19;;;;;;;1.40;1.40;;;3.90;99.90;;;;;;5025910;28;20215;-72
2021/01/24 08:11:46;;;;;;;0.77;0.77;;;3.60;99.90;;;;;;5026021;28;20178;-72
2021/01/24 08:14:13;;;;;;;0.45;0.45;;;3.20;99.90;;;;;;5025705;28;20316;-72
2021/01/24 08:16:45;;;;;;;0.52;0.52;;;3.10;99.90;;;;;;5010922;28;20166;-72
2021/01/24 08:19:14;;;;;;;1.30;0.40;;;3.00;99.90;;;;;;5010915;28;20170;-72
2021/01/24 08:21:40;;;;;;;0.10;0.10;;;3.10;99.90;;;;;;5010655;28;20191;-72
2021/01/24 08:24:08;;;;;;;0.10;0.10;;;3.30;99.90;;;;;;5025557;28;20266;-72
2021/01/24 08:26:37;;;;;;;1.65;1.55;;;3.80;99.90;;;;;;5010570;28;20159;-72
2021/01/24 08:29:05;;;;;;;0.10;0.10;;;4.60;99.90;;;;;;5010533;28;20165;-72
2021/01/24 08:31:33;;;;;;;0.60;0.60;;;5.00;99.90;;;;;;5010536;28;20159;-72
2021/01/24 08:34:00;;;;;;;0.43;0.43;;;5.10;99.90;;;;;;5010375;28;20226;-72
2021/01/24 08:36:27;;;;;;;0.85;0.45;;;5.10;99.90;;;;;;5025384;28;20171;-72
2021/01/24 08:38:59;;;;;;;0.50;0.50;;;5.00;99.90;;;;;;5010256;28;20200;-72
2021/01/24 08:41:33;;;;;;;0.60;0.57;;;4.90;99.90;;;;;;5010155;28;20191;-72
2021/01/24 08:44:06;;;;;;;0.20;0.20;;;4.90;99.90;;;;;;5008918;28;20227;-72
2021/01/24 08:46:39;;;;;;;0.10;0.10;;;5.60;99.90;;;;;;5009801;28;20226;-72
2021/01/24 08:49:13;;;;;;;0.28;0.28;;;6.40;99.90;;;;;;5024170;28;20190;-73
2021/01/24 08:51:55;;;;;;;0.75;0.75;;;7.40;99.90;;;;;;5024392;28;20178;-73
2021/01/24 08:54:32;;;;;;;0.30;0.30;;;8.40;99.90;;;;;;5009505;28;20605;-72
2021/01/24 08:57:12;;;;;;;0.40;0.40;;;8.70;99.90;;;;;;5009281;28;20236;-73
2021/01/24 08:59:39;;;;;;;0.17;0.17;;;9.50;99.90;;;;;;5009026;28;20163;-72
2021/01/24 09:02:06;;;;;;;1.10;1.05;;;10.10;99.90;;;;;;5012147;28;20210;-72
2021/01/24 09:04:44;;;;;;;0.85;0.85;;;11.10;99.90;;;;;;5023649;28;20278;-71
2021/01/24 09:07:12;;;;;;;0.10;0.10;;;12.20;99.90;;;;;;5016738;28;20182;-71
2021/01/24 09:09:43;;;;;;;0.10;0.10;;;13.10;99.90;;;;;;5028188;28;20162;-73
2021/01/24 09:12:12;;;;;;;0.63;0.63;;;12.10;99.90;;;;;;5028113;28;20162;-71
2021/01/24 09:14:38;;;;;;;0.68;0.52;;;11.90;99.90;;;;;;5043301;28;20736;-72
2021/01/24 09:17:20;;;;;;;0.65;0.65;;;13.40;99.90;;;;;;5028220;28;20158;-73
2021/01/24 09:19:47;;;;;;;0.43;0.43;;;14.10;99.90;;;;;;5016134;28;20174;-72
2021/01/24 09:22:15;;;;;;;0.05;0.05;;;14.40;99.90;;;;;;5008133;28;20178;-71
2021/01/24 09:24:42;;;;;;;1.40;1.23;;;14.00;99.90;;;;;;5008188;28;20194;-71
2021/01/24 09:27:10;;;;;;;1.10;0.32;;;14.60;99.90;;;;;;5008344;28;20162;-72
2021/01/24 09:29:38;;;;;;;0.20;0.20;;;14.50;99.90;;;;;;5008193;28;20158;-72
2021/01/24 09:32:05;;;;;;;0.55;0.52;;;14.40;99.90;;;;;;5024513;28;20190;-72
2021/01/24 09:34:31;;;;;;;0.40;0.40;;;11.50;99.90;;;;;;5025351;28;20248;-73
2021/01/24 09:36:57;;;;;;;0.85;0.75;;;9.90;99.90;;;;;;5027818;28;20233;-72
2021/01/24 09:39:25;;;;;;;0.10;0.10;;;8.70;99.90;;;;;;5027697;28;20168;-73
2021/01/24 09:41:50;;;;;;;0.22;0.22;;;8.10;99.90;;;;;;5027497;28;20293;-74
2021/01/24 09:44:16;;;;;;;0.15;0.15;;;8.20;99.90;;;;;;5026001;28;20234;-72
2021/01/24 09:46:42;;;;;;;0.00;0.00;;;8.80;99.90;;;;;;5027534;28;20552;-71
2021/01/24 09:49:09;;;;;;;0.10;0.10;;;8.10;99.90;;;;;;5025964;28;20232;-71
2021/01/24 09:51:36;;;;;;;0.08;0.08;;;8.00;99.90;;;;;;5028109;28;20208;-71
2021/01/24 09:54:03;;;;;;;0.10;0.10;;;8.70;99.90;;;;;;5027510;28;20229;-73
2021/01/24 09:56:29;;;;;;;0.10;0.10;;;9.10;99.90;;;;;;5009476;28;20187;-72
2021/01/24 09:58:56;;;;;;;1.17;0.55;;;8.90;99.90;;;;;;5022774;28;20163;-73
2021/01/24 10:01:23;;;;;;;0.10;0.10;;;9.70;99.90;;;;;;5015294;28;20208;-72
2021/01/24 10:03:50;;;;;;;0.00;0.00;;;10.90;99.90;;;;;;5027384;28;20158;-71
2021/01/24 10:06:18;;;;;;;0.40;0.40;;;12.30;99.90;;;;;;5026025;28;20220;-72
2021/01/24 10:08:44;;;;;;;0.13;0.13;;;12.90;99.90;;;;;;5027428;28;20230;-72
2021/01/24 10:11:11;;;;;;;0.20;0.20;;;12.90;99.90;;;;;;5027184;28;20212;-72
2021/01/24 10:13:37;;;;;;;0.30;0.30;;;13.30;99.90;;;;;;5027035;28;20249;-73
2021/01/24 10:16:04;;;;;;;0.43;0.43;;;13.50;99.90;;;;;;5009728;28;20179;-72
2021/01/24 10:18:31;;;;;;;0.38;0.38;;;13.60;99.90;;;;;;5008117;28;20163;-73
2021/01/24 10:20:57;;;;;;;0.88;0.88;;;14.80;99.90;;;;;;5022394;28;20202;-72
2021/01/24 10:23:23;;;;;;;0.17;0.17;;;15.30;99.90;;;;;;5007810;28;20183;-72
2021/01/24 10:25:52;;;;;;;0.52;0.52;;;15.40;99.90;;;;;;5007675;28;20161;-72
2021/01/24 10:28:18;;;;;;;0.35;0.35;;;14.20;99.90;;;;;;5007904;28;20210;-71
2021/01/24 10:30:45;;;;;;;1.23;0.40;;;14.00;99.90;;;;;;5008042;28;20221;-73
2021/01/24 10:33:12;;;;;;;0.20;0.20;;;14.20;99.90;;;;;;5006651;28;20178;-72
2021/01/24 10:35:39;;;;;;;0.68;0.68;;;13.80;99.90;;;;;;5007770;28;20613;-72
2021/01/24 10:38:06;;;;;;;0.47;0.35;;;12.80;99.90;;;;;;5022976;28;20175;-72
2021/01/24 10:40:32;;;;;;;0.73;0.55;;;12.00;99.90;;;;;;5011289;28;20194;-72
2021/01/24 10:42:58;;;;;;;0.60;0.60;;;10.90;99.90;;;;;;5027233;28;20309;-72
2021/01/24 10:45:24;;;;;;;0.30;0.30;;;10.30;99.90;;;;;;5027797;28;20497;-73
2021/01/24 10:47:51;;;;;;;0.30;0.30;;;9.50;99.90;;;;;;5026108;28;20189;-73
2021/01/24 10:50:17;;;;;;;0.55;0.55;;;8.90;99.90;;;;;;5027396;28;20190;-73
2021/01/24 10:52:43;;;;;;;0.63;0.63;;;8.20;99.90;;;;;;5026134;28;20205;-73
2021/01/24 10:55:09;;;;;;;0.85;0.82;;;7.40;99.90;;;;;;5027243;28;20534;-73
2021/01/24 10:57:35;;;;;;;1.27;1.17;;;6.80;99.90;;;;;;5027339;28;20262;-73
2021/01/24 11:00:02;;;;;;;0.40;0.40;;;6.40;99.90;;;;;;5026938;28;20341;-73
2021/01/24 11:02:28;;;;;;;0.10;0.10;;;6.10;99.90;;;;;;5027190;28;20157;-73
2021/01/24 11:04:54;;;;;;;0.60;0.60;;;5.90;99.90;;;;;;5025496;28;20178;-73
2021/01/24 11:07:20;;;;;;;1.20;1.10;;;5.70;99.90;;;;;;5029375;28;20162;-73
2021/01/24 11:09:46;;;;;;;1.38;1.33;;;5.40;99.90;;;;;;5029491;28;20201;-73
2021/01/24 11:12:12;;;;;;;0.15;0.15;;;5.00;99.90;;;;;;5031024;28;20194;-73
2021/01/24 11:14:38;;;;;;;0.28;0.28;;;4.80;99.90;;;;;;5031152;28;20201;-73
2021/01/24 11:17:04;;;;;;;0.40;0.40;;;4.70;99.90;;;;;;5030717;28;20158;-73
2021/01/24 11:19:30;;;;;;;0.30;0.30;;;4.70;99.90;;;;;;5030788;28;20174;-74
2021/01/24 11:21:56;;;;;;;0.88;0.88;;;4.90;99.90;;;;;;5029002;28;20220;-73
2021/01/24 11:24:22;;;;;;;0.63;0.63;;;5.00;99.90;;;;;;5030930;28;20168;-73
2021/01/24 11:26:50;;;;;;;0.10;0.10;;;5.10;99.90;;;;;;5029320;28;20174;-73
2021/01/24 11:29:16;;;;;;;0.20;0.20;;;4.90;99.90;;;;;;5026599;28;20188;-73
2021/01/24 11:31:42;;;;;;;0.20;0.20;;;4.90;99.90;;;;;;5032597;28;20198;-73
2021/01/24 11:34:08;;;;;;;0.52;0.52;;;5.00;99.90;;;;;;5028737;28;20241;-72
2021/01/24 11:36:33;;;;;;;0.28;0.28;;;4.90;99.90;;;;;;5015986;28;20175;-72
2021/01/24 11:39:00;;;;;;;0.85;0.80;;;5.10;99.90;;;;;;5025445;28;20202;-72
2021/01/24 11:41:25;;;;;;;0.20;0.20;;;5.20;99.90;;;;;;5019819;28;20206;-73
2021/01/24 11:43:52;;;;;;;1.80;1.17;;;5.30;99.90;;;;;;5029802;28;20252;-74
2021/01/24 11:46:18;;;;;;;1.05;0.93;;;5.30;99.90;;;;;;5029967;28;20153;-73
2021/01/24 11:48:44;;;;;;;0.80;0.80;;;5.20;99.90;;;;;;5029731;28;20596;-72
2021/01/24 11:51:10;;;;;;;3.13;1.92;;;5.30;99.90;;;;;;5029669;28;20198;-72
2021/01/24 11:53:37;;;;;;;0.65;0.65;;;5.40;99.90;;;;;;5029934;28;20212;-72
2021/01/24 11:56:04;;;;;;;0.30;0.30;;;5.60;99.90;;;;;;5029761;28;20221;-72
2021/01/24 11:58:30;;;;;;;0.20;0.20;;;5.70;99.90;;;;;;5014219;28;20197;-72
2021/01/24 12:00:57;;;;;;;0.32;0.30;;;5.80;99.90;;;;;;5010336;28;20211;-72
2021/01/24 12:03:22;;;;;;;0.93;0.93;;;5.80;99.90;;;;;;5010618;28;20521;-72
2021/01/24 12:05:48;;;;;;;0.20;0.20;;;5.50;99.90;;;;;;5025146;28;20171;-73
2021/01/24 12:08:14;;;;;;;1.20;1.20;;;5.30;99.90;;;;;;5025319;28;20174;-73
2021/01/24 12:10:40;;;;;;;0.57;0.57;;;5.20;99.90;;;;;;5025263;28;20213;-73
2021/01/24 12:13:06;;;;;;;0.20;0.20;;;5.20;99.90;;;;;;5010276;28;20161;-73
2021/01/24 12:15:32;;;;;;;0.20;0.20;;;5.10;99.90;;;;;;5010324;28;20198;-72
2021/01/24 12:17:58;;;;;;;0.10;0.10;;;5.20;99.90;;;;;;5001320;28;20243;-73
2021/01/24 12:20:24;;;;;;;0.50;0.50;;;5.30;99.90;;;;;;5037616;28;20297;-73
2021/01/24 12:22:49;;;;;;;0.30;0.30;;;5.40;99.90;;;;;;5029953;28;20162;-73
2021/01/24 12:25:16;;;;;;;0.40;0.40;;;5.40;99.90;;;;;;5028247;28;20183;-74
2021/01/24 12:27:41;;;;;;;1.05;1.05;;;5.50;99.90;;;;;;5029480;28;20154;-73
2021/01/24 12:30:08;;;;;;;0.70;0.70;;;5.40;99.90;;;;;;5020335;28;20205;-73
2021/01/24 12:32:34;;;;;;;0.17;0.17;;;5.20;99.90;;;;;;5024698;28;20198;-73
2021/01/24 12:35:00;;;;;;;1.77;1.65;;;5.30;99.90;;;;;;5024642;28;20549;-73
2021/01/24 12:37:26;;;;;;;0.20;0.20;;;5.30;99.90;;;;;;5009847;28;20162;-73
2021/01/24 12:39:51;;;;;;;0.47;0.47;;;5.30;99.90;;;;;;5009566;28;20162;-72
2021/01/24 12:42:18;;;;;;;0.10;0.10;;;5.20;99.90;;;;;;5027684;28;20282;-73
2021/01/24 12:44:44;;;;;;;0.98;0.52;;;5.20;99.90;;;;;;5029944;28;20588;-71
2021/01/24 12:47:10;;;;;;;0.57;0.57;;;5.00;99.90;;;;;;5029960;28;20164;-71
2021/01/24 12:49:37;;;;;;;0.77;0.77;;;5.10;99.90;;;;;;5029781;28;20154;-70
2021/01/24 12:52:04;;;;;;;0.17;0.17;;;5.00;99.90;;;;;;5028603;28;20209;-73
2021/01/24 12:54:30;;;;;;;0.52;0.52;;;4.90;99.90;;;;;;5043409;28;20253;-73
2021/01/24 12:56:56;;;;;;;0.35;0.35;;;4.70;99.90;;;;;;5027494;28;20174;-73
2021/01/24 12:59:21;;;;;;;1.02;1.02;;;4.50;99.90;;;;;;5028339;28;20176;-73
2021/01/24 13:01:47;;;;;;;0.65;0.65;;;4.30;99.90;;;;;;5028427;28;20236;-73